ADDS TAF Board (Experimental) INFO Settings

IDs: Format: Expanded Condensed

KEWR - Newark Intl, NJ, US

Issued at 1931 UTC 28 Feb 2015
Updated at: 2046 UTC 28 Feb 2015
Time1951Z 28/21Z 28/22Z 28/23Z 01/00Z 01/01Z 01/02Z 01/03Z 01/04Z 01/05Z 01/06Z 01/07Z 01/08Z 01/09Z
Type OBS PRVL PRVL PRVL PRVL PRVL PRVL PRVL PRVL PRVL PRVL PRVL PRVL PRVL
VIS 10 >6 >6 >6 >6 >6 >6 >6 >6 >6 >6 >6 >6 >6
CIG -- -- -- -- -- -- -- -- -- -- -- -- 100 100
Cover SCT SCT SCT SCT SCT SCT SCT SCT SCT SCT SCT SCT BKN BKN
FltCat VFR VFR VFR VFR VFR VFR VFR VFR VFR VFR VFR VFR VFR VFR
WX -- -- -- -- -- -- -- -- -- -- -- -- -- --
WDir 260 280 280 VRB VRB VRB VRB VRB VRB VRB VRB VRB VRB VRB
WSpd 5 5 5 3 3 3 3 3 3 3 3 3 3 3
WGst -- -- -- -- -- -- -- -- -- -- -- -- -- --
R04/22
XWnd 4 5 5 VRB VRB VRB VRB VRB VRB VRB VRB VRB VRB VRB
HWnd -3 -1 -1 VRB VRB VRB VRB VRB VRB VRB VRB VRB VRB VRB
R11/29
XWnd -1 0 0 VRB VRB VRB VRB VRB VRB VRB VRB VRB VRB VRB
HWnd -5 -5 -5 VRB VRB VRB VRB VRB VRB VRB VRB VRB VRB VRB

NOTE: TEMPO conditions in [brackets]. Keep in mind TEMPO conditions might be better (lower impact) than prevailing conditions.

Raw TAF
KEWR 281931Z 2820/0124 28005KT P6SM SCT250
  FM282300 VRB03KT P6SM SCT250
  FM010800 VRB03KT P6SM BKN100
  FM011100 VRB03KT P6SM OVC070
  FM011400 VRB03KT 4SM -SN SCT025 OVC040
  FM011600 17004KT 2SM -SN OVC015


Raw METAR
KEWR 281951Z 26005KT 10SM SCT250 M01/M17 A3076 RMK AO2 SLP413 T10111172
KEWR 281851Z 28005KT 10SM FEW250 M02/M16 A3077 RMK AO2 SLP419 T10221161
KEWR 281751Z VRB03KT 10SM SCT250 M03/M16 A3079 RMK AO2 SLP426 4/004 933007 T10331161 11033 21106 58012

METAR Board
Radar Display
Forecast Discussion

TAF Board Legend

Potential Impact
Threat None Slight Moderate High
Visibility (sm) ≥5.1 5.1>X≥3 3>X≥1 <1
Ceiling (100 ft) ≥30.1 30.1>X≥10 10>X≥5 <5
Wind Speed (kt) <10 10≤X<20 20≤X<30 ≥30
Wind Gust (kt) <15 15≤X<25 25≤X<35 ≥35
Weather No Wx Reported VCTS,-TS,-FZRA,SN TS,FZRA +TS,+FZRA,+SN